Tywyn, United Kingdom
Current Conditions -  °F | °C
As of 12:50 AM on Friday 28 Nov 2014 (Local Time) from EGOV Reporting Station
Overcast Overcast  
Wind Chill: 41°   Ceiling: 6000
Heat Index: 46°   Visibility: 6mi
Dew Point: 41°   Wind: 10mph
Humidity: 81%   Direction: 50°NE
Pressure: 29.5"   Gusts: NA
Location:  52.59°N, 4.09°W
Report Text: EGOV 280050Z AUTO 05009KT 9999 OVC060/// 08/05 Q0999
Loading
Personal Weather Stations






























Interactive Weather Map New forecast layout! Learn more

10-Day Weather Forecast

Advertisements
Track Severe Weather on mobile